createdAt,value
2022-11-20T00:01:21.836Z,11.00
2022-11-20T00:03:48.740Z,9.43
2022-11-20T00:06:18.241Z,10.03
2022-11-20T00:08:45.672Z,8.73
2022-11-20T00:11:19.416Z,7.33
2022-11-20T00:13:47.510Z,9.67
2022-11-20T00:16:16.279Z,8.77
2022-11-20T00:18:43.404Z,10.13
2022-11-20T00:21:15.420Z,11.20
2022-11-20T00:23:42.498Z,9.47
2022-11-20T00:26:11.903Z,9.37
2022-11-20T00:28:38.475Z,9.50
2022-11-20T00:31:13.985Z,11.27
2022-11-20T00:33:41.647Z,9.23
2022-11-20T00:36:10.727Z,8.77
2022-11-20T00:38:37.802Z,8.13
2022-11-20T00:41:07.691Z,9.03
2022-11-20T00:43:34.887Z,11.90
2022-11-20T00:46:10.393Z,8.50
2022-11-20T00:48:36.944Z,9.03
2022-11-20T00:51:03.431Z,8.07
2022-11-20T00:53:29.929Z,11.83
2022-11-20T00:56:01.435Z,7.70
2022-11-20T00:58:34.386Z,8.10
2022-11-20T01:01:09.299Z,12.80
2022-11-20T01:03:38.551Z,10.77
2022-11-20T01:06:08.088Z,10.07
2022-11-20T01:08:36.534Z,10.83
2022-11-20T01:11:09.511Z,10.33
2022-11-20T01:13:40.061Z,12.03
2022-11-20T01:16:12.089Z,11.23
2022-11-20T01:18:40.416Z,10.13
2022-11-20T01:21:12.571Z,14.30
2022-11-20T01:23:41.518Z,10.70
2022-11-20T01:26:11.164Z,15.23
2022-11-20T01:28:37.996Z,14.90
2022-11-20T01:31:21.596Z,11.50
2022-11-20T01:33:50.353Z,12.27
2022-11-20T01:36:18.520Z,12.57
2022-11-20T01:38:45.126Z,13.23
2022-11-20T01:41:32.910Z,13.20
2022-11-20T01:44:00.151Z,13.63
2022-11-20T01:46:26.651Z,14.37
2022-11-20T01:49:05.139Z,12.13
2022-11-20T01:51:43.147Z,13.10
2022-11-20T01:54:17.069Z,12.00
2022-11-20T01:56:46.760Z,10.70
2022-11-20T01:59:16.679Z,10.63
2022-11-20T02:01:43.500Z,10.63
2022-11-20T02:04:11.080Z,11.20
2022-11-20T02:06:43.574Z,11.47
2022-11-20T02:09:10.215Z,11.73
2022-11-20T02:11:36.686Z,11.93
2022-11-20T02:14:03.163Z,13.77
2022-11-20T02:16:37.734Z,11.90
2022-11-20T02:19:09.766Z,14.03
2022-11-20T02:22:07.287Z,10.60
2022-11-20T02:24:33.737Z,11.27
2022-11-20T02:27:07.267Z,13.83
2022-11-20T02:29:38.927Z,8.97
2022-11-20T02:32:05.442Z,12.37
2022-11-20T02:34:32.195Z,12.77
2022-11-20T02:37:00.056Z,11.70
2022-11-20T02:39:29.321Z,11.60
2022-11-20T02:41:57.020Z,12.97
2022-11-20T02:44:23.569Z,10.80
2022-11-20T02:46:50.004Z,9.60
2022-11-20T02:49:17.972Z,14.57
2022-11-20T02:51:44.951Z,10.87
2022-11-20T02:54:11.513Z,12.60
2022-11-20T02:56:39.526Z,12.67
2022-11-20T02:59:05.932Z,11.87
2022-11-20T03:01:32.464Z,14.00
2022-11-20T03:03:58.905Z,14.10
2022-11-20T03:06:25.393Z,12.90
2022-11-20T03:08:51.870Z,14.83
2022-11-20T03:11:18.517Z,10.63
2022-11-20T03:13:44.999Z,12.87
2022-11-20T03:16:14.889Z,10.70
2022-11-20T03:18:42.718Z,10.73
2022-11-20T03:21:10.803Z,13.57
2022-11-20T03:23:37.629Z,13.73
2022-11-20T03:26:10.785Z,13.53
2022-11-20T03:28:37.567Z,11.10
2022-11-20T03:31:12.474Z,10.40
2022-11-20T03:33:40.152Z,8.53
2022-11-20T03:36:10.107Z,12.27
2022-11-20T03:38:37.274Z,9.97
2022-11-20T03:41:07.270Z,10.30
2022-11-20T03:43:34.637Z,12.17
2022-11-20T03:46:01.422Z,8.17
2022-11-20T03:48:28.333Z,12.67
2022-11-20T03:51:10.748Z,11.60
2022-11-20T03:53:37.366Z,11.37
2022-11-20T03:56:04.284Z,14.60
2022-11-20T03:58:30.680Z,10.80
2022-11-20T04:00:57.074Z,10.57
2022-11-20T04:03:23.532Z,10.80
2022-11-20T04:05:49.929Z,11.83
2022-11-20T04:08:16.375Z,10.43
2022-11-20T04:10:42.793Z,13.60
2022-11-20T04:13:09.243Z,11.17
2022-11-20T04:15:38.360Z,11.73
2022-11-20T04:18:05.167Z,14.60
2022-11-20T04:20:31.593Z,10.80
2022-11-20T04:22:58.050Z,9.57
2022-11-20T04:25:24.465Z,10.43
2022-11-20T04:27:50.895Z,13.37
2022-11-20T04:30:17.454Z,12.03
2022-11-20T04:32:43.892Z,10.33
2022-11-20T04:35:10.400Z,10.90
2022-11-20T04:37:36.854Z,11.70
2022-11-20T04:40:03.505Z,12.37
2022-11-20T04:42:29.937Z,11.17
2022-11-20T04:44:56.966Z,9.00
2022-11-20T04:47:23.545Z,10.97
2022-11-20T04:49:50.114Z,9.20
2022-11-20T04:52:16.581Z,8.37
2022-11-20T04:54:42.993Z,9.70
2022-11-20T04:57:14.290Z,9.20
2022-11-20T04:59:41.207Z,11.33
2022-11-20T05:02:07.904Z,11.00
2022-11-20T05:04:34.332Z,12.80
2022-11-20T05:07:00.828Z,9.80
2022-11-20T05:09:27.258Z,9.80
2022-11-20T05:11:53.663Z,9.83
2022-11-20T05:14:20.078Z,9.97
2022-11-20T05:16:46.806Z,10.00
2022-11-20T05:19:13.287Z,9.73
2022-11-20T05:21:39.722Z,20.50
2022-11-20T05:24:06.874Z,12.17
2022-11-20T05:26:33.588Z,11.40
2022-11-20T05:29:00.023Z,12.73
2022-11-20T05:31:28.306Z,11.07
2022-11-20T05:33:55.789Z,12.10
2022-11-20T05:36:22.441Z,10.00
2022-11-20T05:38:51.062Z,11.77
2022-11-20T05:41:20.556Z,13.40
2022-11-20T05:43:48.686Z,12.27
2022-11-20T05:46:17.023Z,13.67
2022-11-20T05:48:44.897Z,14.10
2022-11-20T05:51:14.159Z,12.57
2022-11-20T05:53:46.697Z,11.97
2022-11-20T05:56:18.630Z,13.40
2022-11-20T05:58:46.185Z,13.63
2022-11-20T06:01:19.230Z,12.53
2022-11-20T06:03:48.365Z,11.60
2022-11-20T06:06:16.061Z,9.63
2022-11-20T06:08:42.896Z,13.83
2022-11-20T06:11:11.591Z,12.97
2022-11-20T06:13:42.093Z,12.60
2022-11-20T06:16:09.676Z,12.43
2022-11-20T06:18:36.206Z,9.33
2022-11-20T06:21:03.802Z,12.60
2022-11-20T06:23:31.973Z,11.17
2022-11-20T06:26:02.535Z,13.33
2022-11-20T06:28:29.030Z,12.87
2022-11-20T06:30:55.543Z,8.47
2022-11-20T06:33:22.212Z,12.83
2022-11-20T06:35:48.701Z,13.97
2022-11-20T06:38:15.180Z,11.67
2022-11-20T06:40:42.698Z,12.90
2022-11-20T06:43:12.239Z,10.90
2022-11-20T06:45:38.777Z,11.67
2022-11-20T06:48:05.509Z,13.60
2022-11-20T06:50:32.042Z,11.43
2022-11-20T06:53:01.911Z,11.30
2022-11-20T06:55:28.493Z,12.77
2022-11-20T06:57:56.088Z,9.73
2022-11-20T07:00:22.676Z,9.50
2022-11-20T07:02:49.079Z,10.20
2022-11-20T07:05:15.547Z,10.67
2022-11-20T07:07:42.054Z,11.60
2022-11-20T07:10:08.948Z,11.77
2022-11-20T07:12:35.467Z,13.80
2022-11-20T07:15:02.009Z,12.57
2022-11-20T07:17:28.518Z,11.80
2022-11-20T07:19:54.917Z,10.80
2022-11-20T07:22:22.726Z,14.47
2022-11-20T07:24:49.464Z,11.17
2022-11-20T07:27:15.866Z,10.03
2022-11-20T07:29:42.302Z,11.10
2022-11-20T07:32:08.757Z,11.53
2022-11-20T07:34:35.175Z,13.53
2022-11-20T07:37:06.039Z,11.93
2022-11-20T07:39:35.472Z,11.30
2022-11-20T07:42:01.901Z,8.17
2022-11-20T07:44:28.342Z,11.00
2022-11-20T07:46:54.818Z,13.60
2022-11-20T07:49:21.511Z,10.30
2022-11-20T07:51:52.054Z,12.00
2022-11-20T07:54:18.518Z,10.27
2022-11-20T07:56:44.957Z,8.90
2022-11-20T07:59:12.835Z,11.10
2022-11-20T08:01:40.028Z,15.10
2022-11-20T08:04:06.679Z,13.57
2022-11-20T08:06:33.137Z,14.57
2022-11-20T08:08:59.800Z,10.90
2022-11-20T08:11:44.793Z,15.10
2022-11-20T08:14:13.919Z,17.57
2022-11-20T08:16:46.266Z,12.33
2022-11-20T08:19:14.848Z,12.43
2022-11-20T08:21:42.116Z,13.40
2022-11-20T08:24:09.334Z,11.23
2022-11-20T08:26:40.173Z,15.73
2022-11-20T08:29:07.042Z,12.33
2022-11-20T08:31:33.707Z,12.33
2022-11-20T08:34:00.161Z,15.17
2022-11-20T08:36:26.844Z,12.67
2022-11-20T08:38:55.506Z,14.63
2022-11-20T08:41:26.520Z,12.80
2022-11-20T08:44:07.742Z,15.77
2022-11-20T08:46:39.436Z,14.47
2022-11-20T08:49:07.873Z,13.37
2022-11-20T08:51:34.320Z,15.93
2022-11-20T08:54:01.437Z,24.07
2022-11-20T08:56:28.505Z,12.13
2022-11-20T08:59:18.274Z,14.00
2022-11-20T09:01:41.486Z,16.03
2022-11-20T09:04:07.925Z,14.63
2022-11-20T09:06:34.403Z,13.20
2022-11-20T09:09:06.106Z,17.47
2022-11-20T09:11:33.414Z,14.53
2022-11-20T09:13:59.846Z,16.47
2022-11-20T09:16:26.245Z,14.97
2022-11-20T09:19:02.182Z,14.13
2022-11-20T09:21:39.123Z,14.50
2022-11-20T09:24:06.283Z,15.00
2022-11-20T09:26:32.689Z,12.17
2022-11-20T09:28:59.070Z,13.93
2022-11-20T09:31:27.177Z,13.23
2022-11-20T09:33:53.617Z,13.70
2022-11-20T09:36:20.303Z,15.63
2022-11-20T09:38:47.609Z,13.30
2022-11-20T09:41:51.495Z,13.83
2022-11-20T09:44:35.659Z,14.23
2022-11-20T09:47:31.800Z,16.10
2022-11-20T09:50:18.499Z,12.80
2022-11-20T09:53:32.693Z,14.67
2022-11-20T09:56:03.047Z,14.83
2022-11-20T09:58:45.979Z,17.30
2022-11-20T10:01:20.785Z,15.00
2022-11-20T10:03:53.141Z,20.13
2022-11-20T10:06:31.872Z,15.93
2022-11-20T10:09:07.912Z,16.17
2022-11-20T10:11:42.801Z,18.63
2022-11-20T10:14:11.938Z,20.40
2022-11-20T10:16:41.499Z,16.93
2022-11-20T10:19:35.751Z,19.60
2022-11-20T10:22:04.761Z,18.90
2022-11-20T10:24:42.808Z,18.10
2022-11-20T10:27:50.588Z,21.47
2022-11-20T10:30:20.968Z,18.50
2022-11-20T10:32:55.660Z,18.27
2022-11-20T10:35:29.010Z,17.60
2022-11-20T10:37:59.700Z,19.10
2022-11-20T10:40:41.684Z,23.43
2022-11-20T10:43:14.801Z,17.90
2022-11-20T10:45:51.733Z,22.00
2022-11-20T10:48:27.420Z,22.73
2022-11-20T10:51:28.214Z,16.00
2022-11-20T10:54:21.346Z,18.10
2022-11-20T10:56:52.991Z,17.80
2022-11-20T10:59:41.268Z,18.87
2022-11-20T11:02:25.657Z,24.80
2022-11-20T11:04:53.771Z,18.60
2022-11-20T11:07:24.645Z,19.03
2022-11-20T11:09:54.504Z,18.40
2022-11-20T11:12:23.221Z,18.33
2022-11-20T11:14:52.107Z,21.63
2022-11-20T11:17:24.429Z,19.73
2022-11-20T11:20:18.025Z,17.37
2022-11-20T11:22:46.364Z,17.87
2022-11-20T11:25:31.007Z,17.87
2022-11-20T11:28:00.605Z,22.37
2022-11-20T11:30:29.307Z,15.83
2022-11-20T11:33:07.439Z,19.90
2022-11-20T11:35:34.600Z,20.30
2022-11-20T11:38:13.500Z,19.27
2022-11-20T11:40:41.562Z,17.60
2022-11-20T11:43:38.509Z,20.20
2022-11-20T11:46:25.436Z,20.20
2022-11-20T11:49:00.215Z,18.47
2022-11-20T11:51:39.031Z,19.00
2022-11-20T11:54:17.927Z,19.40
2022-11-20T11:56:45.635Z,21.53
2022-11-20T11:59:24.744Z,17.30
2022-11-20T12:02:02.643Z,19.70
2022-11-20T12:04:53.971Z,19.77
2022-11-20T12:07:46.468Z,20.27
2022-11-20T12:10:24.010Z,21.17
2022-11-20T12:13:03.040Z,18.67
2022-11-20T12:15:32.211Z,17.57
2022-11-20T12:17:58.708Z,17.53
2022-11-20T12:20:30.127Z,20.63
2022-11-20T12:23:16.824Z,21.40
2022-11-20T12:25:49.034Z,21.20
2022-11-20T12:28:28.387Z,18.60
2022-11-20T12:31:06.311Z,22.80
2022-11-20T12:33:56.679Z,26.73
2022-11-20T12:36:48.925Z,17.63
2022-11-20T12:39:30.174Z,19.77
2022-11-20T12:42:34.360Z,20.87
2022-11-20T12:45:13.028Z,18.97
2022-11-20T12:48:00.669Z,20.70
2022-11-20T12:51:14.500Z,22.10
2022-11-20T12:53:53.925Z,19.43
2022-11-20T12:56:26.927Z,22.53
2022-11-20T12:59:12.331Z,20.83
2022-11-20T13:01:48.681Z,22.00
2022-11-20T13:04:33.597Z,18.33
2022-11-20T13:07:02.577Z,19.37
2022-11-20T13:09:29.988Z,21.90
2022-11-20T13:12:06.184Z,21.80
2022-11-20T13:14:43.739Z,20.40
2022-11-20T13:17:36.962Z,20.23
2022-11-20T13:20:06.792Z,21.43
2022-11-20T13:22:58.332Z,20.20
2022-11-20T13:25:33.373Z,18.50
2022-11-20T13:28:24.916Z,20.37
2022-11-20T13:30:53.490Z,16.73
2022-11-20T13:33:24.551Z,19.90
2022-11-20T13:36:25.241Z,24.37
2022-11-20T13:38:53.920Z,19.50
2022-11-20T13:41:36.546Z,19.70
2022-11-20T13:44:30.708Z,21.70
2022-11-20T13:46:57.277Z,23.63
2022-11-20T13:49:34.129Z,21.83
2022-11-20T13:52:03.300Z,21.60
2022-11-20T13:54:55.381Z,19.93
2022-11-20T13:57:52.729Z,20.70
2022-11-20T14:00:22.387Z,19.90
2022-11-20T14:03:02.042Z,20.40
2022-11-20T14:05:32.000Z,19.37
2022-11-20T14:07:59.011Z,20.33
2022-11-20T14:10:32.304Z,22.10
2022-11-20T14:13:10.448Z,22.93
2022-11-20T14:15:41.853Z,21.60
2022-11-20T14:18:20.072Z,22.80
2022-11-20T14:20:47.512Z,22.27
2022-11-20T14:23:29.314Z,26.63
2022-11-20T14:25:56.624Z,17.57
2022-11-20T14:28:28.083Z,19.33
2022-11-20T14:30:56.445Z,19.87
2022-11-20T14:33:25.893Z,20.33
2022-11-20T14:35:57.406Z,18.73
2022-11-20T14:38:32.816Z,22.67
2022-11-20T14:41:08.311Z,17.87
2022-11-20T14:43:36.931Z,20.13
2022-11-20T14:46:06.039Z,18.80
2022-11-20T14:48:50.485Z,16.13
2022-11-20T14:51:44.851Z,22.10
2022-11-20T14:54:15.906Z,22.73
2022-11-20T14:56:43.216Z,20.30
2022-11-20T14:59:10.542Z,22.40
2022-11-20T15:01:38.399Z,19.97
2022-11-20T15:04:10.770Z,21.70
2022-11-20T15:06:39.085Z,19.47
2022-11-20T15:09:14.672Z,20.50
2022-11-20T15:11:56.284Z,21.47
2022-11-20T15:14:23.355Z,20.27
2022-11-20T15:16:50.255Z,22.57
2022-11-20T15:19:22.725Z,20.13
2022-11-20T15:21:50.085Z,25.67
2022-11-20T15:24:16.778Z,25.33
2022-11-20T15:26:45.225Z,24.37
2022-11-20T15:29:13.219Z,27.60
2022-11-20T15:31:45.758Z,27.10
2022-11-20T15:34:13.643Z,25.20
2022-11-20T15:36:41.100Z,24.90
2022-11-20T15:39:10.594Z,22.17
2022-11-20T15:41:37.510Z,24.80
2022-11-20T15:44:05.687Z,23.03
2022-11-20T15:46:39.429Z,26.50
2022-11-20T15:49:07.131Z,23.80
2022-11-20T15:51:37.659Z,18.27
2022-11-20T15:54:12.794Z,22.80
2022-11-20T15:56:39.584Z,20.10
2022-11-20T15:59:06.172Z,23.37
2022-11-20T16:01:32.829Z,20.47
2022-11-20T16:04:01.009Z,22.07
2022-11-20T16:06:27.516Z,23.93
2022-11-20T16:08:53.967Z,21.47
2022-11-20T16:11:20.393Z,21.47
2022-11-20T16:14:05.482Z,23.97
2022-11-20T16:16:34.373Z,22.33
2022-11-20T16:19:01.268Z,21.67
2022-11-20T16:21:32.201Z,24.03
2022-11-20T16:24:04.552Z,24.17
2022-11-20T16:26:31.559Z,23.60
2022-11-20T16:28:59.829Z,23.37
2022-11-20T16:31:26.279Z,21.83
2022-11-20T16:33:54.125Z,22.43
2022-11-20T16:36:22.524Z,21.20
2022-11-20T16:38:54.172Z,25.87
2022-11-20T16:41:20.637Z,24.17
2022-11-20T16:43:51.670Z,21.30
2022-11-20T16:46:20.788Z,20.27
2022-11-20T16:48:55.370Z,21.73
2022-11-20T16:51:22.505Z,22.97
2022-11-20T16:53:50.595Z,21.17
2022-11-20T16:56:22.657Z,18.03
2022-11-20T16:58:51.166Z,24.23
2022-11-20T17:01:21.421Z,20.43
2022-11-20T17:04:00.714Z,15.13
2022-11-20T17:06:32.799Z,22.23
2022-11-20T17:08:59.619Z,19.87
2022-11-20T17:11:27.442Z,17.73
2022-11-20T17:13:56.097Z,21.33
2022-11-20T17:16:24.545Z,15.03
2022-11-20T17:18:51.372Z,18.80
2022-11-20T17:21:19.183Z,18.37
2022-11-20T17:23:46.770Z,19.83
2022-11-20T17:26:17.811Z,20.47
2022-11-20T17:28:53.738Z,24.60
2022-11-20T17:31:20.529Z,20.03
2022-11-20T17:33:47.419Z,21.20
2022-11-20T17:36:18.624Z,20.30
2022-11-20T17:38:45.512Z,21.63
2022-11-20T17:41:14.618Z,23.73
2022-11-20T17:43:42.831Z,18.33
2022-11-20T17:46:10.606Z,21.47
2022-11-20T17:48:38.513Z,20.90
2022-11-20T17:51:06.455Z,19.03
2022-11-20T17:53:34.582Z,20.77
2022-11-20T17:56:19.756Z,17.37
2022-11-20T17:58:46.719Z,21.80
2022-11-20T18:01:13.549Z,18.37
2022-11-20T18:03:39.965Z,16.77
2022-11-20T18:06:09.537Z,18.87
2022-11-20T18:08:35.994Z,16.93
2022-11-20T18:11:10.776Z,16.53
2022-11-20T18:13:55.883Z,19.77
2022-11-20T18:16:23.946Z,18.33
2022-11-20T18:18:50.419Z,16.33
2022-11-20T18:21:16.903Z,18.70
2022-11-20T18:23:43.363Z,15.77
2022-11-20T18:26:09.851Z,17.67
2022-11-20T18:28:39.172Z,16.90
2022-11-20T18:31:07.245Z,16.80
2022-11-20T18:33:34.711Z,16.60
2022-11-20T18:36:12.744Z,16.43
2022-11-20T18:38:48.266Z,17.53
2022-11-20T18:41:34.965Z,16.17
2022-11-20T18:44:21.726Z,17.43
2022-11-20T18:46:48.528Z,16.53
2022-11-20T18:49:15.634Z,16.03
2022-11-20T18:51:45.687Z,19.17
2022-11-20T18:54:13.189Z,18.40
2022-11-20T18:56:39.835Z,15.73
2022-11-20T18:59:09.076Z,16.60
2022-11-20T19:01:36.511Z,15.70
2022-11-20T19:04:10.946Z,16.97
2022-11-20T19:06:39.179Z,19.17
2022-11-20T19:09:11.934Z,20.43
2022-11-20T19:11:40.325Z,17.37
2022-11-20T19:14:07.322Z,18.37
2022-11-20T19:16:33.995Z,18.40
2022-11-20T19:19:03.415Z,21.70
2022-11-20T19:21:30.886Z,18.10
2022-11-20T19:23:59.122Z,18.33
2022-11-20T19:26:26.288Z,19.37
2022-11-20T19:28:53.767Z,24.67
2022-11-20T19:31:24.710Z,19.40
2022-11-20T19:33:59.185Z,21.23
2022-11-20T19:36:30.805Z,20.50
2022-11-20T19:38:57.683Z,20.40
2022-11-20T19:41:29.648Z,17.77
2022-11-20T19:44:06.557Z,17.70
2022-11-20T19:46:38.093Z,15.57
2022-11-20T19:49:05.978Z,17.73
2022-11-20T19:51:34.857Z,14.80
2022-11-20T19:54:02.671Z,16.73
2022-11-20T19:56:30.893Z,16.03
2022-11-20T19:58:57.819Z,18.47
2022-11-20T20:01:27.444Z,16.97
2022-11-20T20:03:55.266Z,13.93
2022-11-20T20:06:24.815Z,16.90
2022-11-20T20:09:12.057Z,16.70
2022-11-20T20:11:39.917Z,17.23
2022-11-20T20:14:14.627Z,16.67
2022-11-20T20:16:42.137Z,17.43
2022-11-20T20:19:13.174Z,18.87
2022-11-20T20:21:41.185Z,16.93
2022-11-20T20:24:09.192Z,15.40
2022-11-20T20:26:35.984Z,17.57
2022-11-20T20:29:02.946Z,14.30
2022-11-20T20:31:33.620Z,15.97
2022-11-20T20:34:00.881Z,16.53
2022-11-20T20:36:27.395Z,19.13
2022-11-20T20:38:55.587Z,16.43
2022-11-20T20:41:23.332Z,17.77
2022-11-20T20:44:08.227Z,17.73
2022-11-20T20:46:34.705Z,18.40
2022-11-20T20:49:01.352Z,17.03
2022-11-20T20:51:27.904Z,17.80
2022-11-20T20:53:54.415Z,16.33
2022-11-20T20:56:21.370Z,17.83
2022-11-20T20:58:47.872Z,19.10
2022-11-20T21:01:16.536Z,17.80
2022-11-20T21:03:42.981Z,20.73
2022-11-20T21:06:10.724Z,21.13
2022-11-20T21:08:40.616Z,20.03
2022-11-20T21:11:12.949Z,19.57
2022-11-20T21:13:41.423Z,18.50
2022-11-20T21:16:08.047Z,18.80
2022-11-20T21:18:34.996Z,15.27
2022-11-20T21:21:24.460Z,18.70
2022-11-20T21:23:52.030Z,16.30
2022-11-20T21:26:18.542Z,19.10
2022-11-20T21:28:45.476Z,19.03
2022-11-20T21:31:15.406Z,20.10
2022-11-20T21:33:45.697Z,22.57
2022-11-20T21:36:15.088Z,18.97
2022-11-20T21:38:41.721Z,24.23
2022-11-20T21:41:10.051Z,18.60
2022-11-20T21:43:37.207Z,20.00
2022-11-20T21:46:06.454Z,22.10
2022-11-20T21:48:34.379Z,21.40
2022-11-20T21:51:07.065Z,23.93
2022-11-20T21:53:34.231Z,22.40
2022-11-20T21:56:01.028Z,20.43
2022-11-20T21:58:28.164Z,19.10
2022-11-20T22:00:54.625Z,21.73
2022-11-20T22:03:21.480Z,20.17
2022-11-20T22:05:56.184Z,20.57
2022-11-20T22:08:24.130Z,23.60
2022-11-20T22:11:02.528Z,20.57
2022-11-20T22:13:47.748Z,21.80
2022-11-20T22:16:14.553Z,17.03
2022-11-20T22:18:45.866Z,24.87
2022-11-20T22:21:14.350Z,22.00
2022-11-20T22:23:40.898Z,21.47
2022-11-20T22:26:10.376Z,22.13
2022-11-20T22:28:37.423Z,20.50
2022-11-20T22:31:06.235Z,23.13
2022-11-20T22:33:33.625Z,23.13
2022-11-20T22:36:05.889Z,21.20
2022-11-20T22:38:38.909Z,22.87
2022-11-20T22:41:08.287Z,26.07
2022-11-20T22:43:35.324Z,21.60
2022-11-20T22:46:11.687Z,19.10
2022-11-20T22:48:40.194Z,19.97
2022-11-20T22:51:07.808Z,21.00
2022-11-20T22:53:35.148Z,24.23
2022-11-20T22:56:02.511Z,22.67
2022-11-20T22:58:30.935Z,23.87
2022-11-20T23:01:18.669Z,22.90
2022-11-20T23:03:47.384Z,22.27
2022-11-20T23:06:15.405Z,20.97
2022-11-20T23:08:42.428Z,22.30
2022-11-20T23:11:14.396Z,20.40
2022-11-20T23:13:41.747Z,25.30
2022-11-20T23:16:10.908Z,25.73
2022-11-20T23:18:38.003Z,22.73
2022-11-20T23:21:11.090Z,24.77
2022-11-20T23:23:37.616Z,20.50
2022-11-20T23:26:06.851Z,23.63
2022-11-20T23:28:33.628Z,27.60
2022-11-20T23:31:00.999Z,27.00
2022-11-20T23:33:27.576Z,24.17
2022-11-20T23:35:54.150Z,28.30
2022-11-20T23:38:20.898Z,24.70
2022-11-20T23:40:48.681Z,31.83
2022-11-20T23:43:16.011Z,25.90
2022-11-20T23:45:50.111Z,24.83
2022-11-20T23:48:17.092Z,23.70
2022-11-20T23:50:44.501Z,24.50
2022-11-20T23:53:11.922Z,25.77
2022-11-20T23:55:38.602Z,23.37
2022-11-20T23:58:05.288Z,28.07
